createdAt,value
2023-04-08T00:02:37.395Z,101709.97
2023-04-08T00:05:40.274Z,101718.53
2023-04-08T00:08:43.406Z,101723.59
2023-04-08T00:11:46.417Z,101732.38
2023-04-08T00:14:49.304Z,101727.97
2023-04-08T00:17:54.603Z,101726.31
2023-04-08T00:20:58.183Z,101730.69
2023-04-08T00:24:01.302Z,101729.84
2023-04-08T00:27:04.383Z,101724.16
2023-04-08T00:30:08.395Z,101730.28
2023-04-08T00:33:12.770Z,101723.97
2023-04-08T00:36:15.877Z,101728.19
2023-04-08T00:39:18.977Z,101734.03
2023-04-08T00:42:22.342Z,101732.38
2023-04-08T00:45:25.302Z,101736.09
2023-04-08T00:48:31.429Z,101735.88
2023-04-08T00:51:36.397Z,101729.19
2023-04-08T00:54:39.782Z,101728.81
2023-04-08T00:57:43.393Z,101725.28
2023-04-08T01:00:53.867Z,101726.50
2023-04-08T01:04:03.673Z,101717.31
2023-04-08T01:07:14.483Z,101718.53
2023-04-08T01:10:19.649Z,101731.16
2023-04-08T01:13:27.271Z,101718.97
2023-04-08T01:16:30.356Z,101722.31
2023-04-08T01:19:38.938Z,101729.63
2023-04-08T01:22:53.782Z,101727.06
2023-04-08T01:25:59.568Z,101723.91
2023-04-08T01:29:04.097Z,101719.72
2023-04-08T01:32:09.033Z,101734.38
2023-04-08T01:35:12.579Z,101728.34
2023-04-08T01:38:18.140Z,101736.91
2023-04-08T01:41:22.884Z,101735.88
2023-04-08T01:44:27.893Z,101744.06
2023-04-08T01:47:31.913Z,101739.84
2023-04-08T01:50:35.817Z,101735.69
2023-04-08T01:53:38.776Z,101739.44
2023-04-08T01:56:45.840Z,101758.72
2023-04-08T01:59:52.158Z,101751.59
2023-04-08T02:02:56.925Z,101751.59
2023-04-08T02:05:59.933Z,101743.19
2023-04-08T02:09:03.015Z,101739.47
2023-04-08T02:12:07.573Z,101742.81
2023-04-08T02:15:10.939Z,101739.88
2023-04-08T02:18:17.593Z,101740.16
2023-04-08T02:21:28.261Z,101747.94
2023-04-08T02:24:31.688Z,101747.25
2023-04-08T02:27:37.341Z,101748.94
2023-04-08T02:30:44.473Z,101755.59
2023-04-08T02:33:47.571Z,101766.06
2023-04-08T02:36:51.279Z,101766.84
2023-04-08T02:39:53.973Z,101763.69
2023-04-08T02:42:58.767Z,101766.44
2023-04-08T02:46:04.214Z,101781.34
2023-04-08T02:49:07.256Z,101779.09
2023-04-08T02:52:10.316Z,101774.88
2023-04-08T02:55:13.194Z,101779.03
2023-04-08T02:58:17.408Z,101776.78
2023-04-08T03:01:20.454Z,101785.00
2023-04-08T03:04:23.362Z,101778.97
2023-04-08T03:07:26.308Z,101776.66
2023-04-08T03:10:29.494Z,101782.53
2023-04-08T03:13:34.286Z,101787.94
2023-04-08T03:16:37.033Z,101781.41
2023-04-08T03:19:39.973Z,101789.53
2023-04-08T03:22:43.087Z,101790.13
2023-04-08T03:25:45.885Z,101798.28
2023-04-08T03:28:50.650Z,101795.13
2023-04-08T03:31:54.145Z,101805.69
2023-04-08T03:34:56.917Z,101806.94
2023-04-08T03:38:00.019Z,101793.69
2023-04-08T03:41:02.783Z,101794.94
2023-04-08T03:44:07.773Z,101800.84
2023-04-08T03:47:10.562Z,101793.88
2023-04-08T03:50:13.568Z,101799.13
2023-04-08T03:53:16.497Z,101815.31
2023-04-08T03:56:19.323Z,101811.53
2023-04-08T03:59:24.585Z,101806.69
2023-04-08T04:02:27.809Z,101815.47
2023-04-08T04:05:31.020Z,101810.84
2023-04-08T04:08:34.498Z,101810.91
2023-04-08T04:11:37.495Z,101814.47
2023-04-08T04:14:41.542Z,101823.59
2023-04-08T04:17:44.500Z,101831.81
2023-04-08T04:20:47.376Z,101825.97
2023-04-08T04:23:50.234Z,101835.72
2023-04-08T04:26:53.952Z,101837.91
2023-04-08T04:29:58.230Z,101848.38
2023-04-08T04:33:00.935Z,101851.94
2023-04-08T04:36:05.555Z,101848.66
2023-04-08T04:39:08.518Z,101851.31
2023-04-08T04:42:11.294Z,101852.00
2023-04-08T04:45:16.026Z,101848.19
2023-04-08T04:48:18.868Z,101856.63
2023-04-08T04:51:21.973Z,101855.09
2023-04-08T04:54:28.331Z,101863.88
2023-04-08T04:57:31.637Z,101866.84
2023-04-08T05:00:36.975Z,101868.91
2023-04-08T05:03:40.038Z,101877.16
2023-04-08T05:06:43.206Z,101873.41
2023-04-08T05:09:47.090Z,101876.75
2023-04-08T05:12:49.875Z,101883.66
2023-04-08T05:15:54.094Z,101883.06
2023-04-08T05:18:57.025Z,101889.31
2023-04-08T05:22:00.407Z,101879.41
2023-04-08T05:25:03.287Z,101893.69
2023-04-08T05:28:06.763Z,101888.69
2023-04-08T05:31:11.992Z,101893.88
2023-04-08T05:34:22.532Z,101896.03
2023-04-08T05:37:25.594Z,101903.09
2023-04-08T05:40:29.624Z,101904.78
2023-04-08T05:43:34.265Z,101912.13
2023-04-08T05:46:38.735Z,101915.81
2023-04-08T05:49:41.786Z,101921.78
2023-04-08T05:52:46.602Z,101916.38
2023-04-08T05:55:49.498Z,101921.63
2023-04-08T05:58:52.454Z,101928.56
2023-04-08T06:01:57.160Z,101942.88
2023-04-08T06:05:00.039Z,101931.19
2023-04-08T06:08:03.072Z,101931.81
2023-04-08T06:11:07.000Z,101940.16
2023-04-08T06:14:09.720Z,101937.84
2023-04-08T06:17:14.030Z,101939.59
2023-04-08T06:20:16.940Z,101952.38
2023-04-08T06:23:20.064Z,101945.88
2023-04-08T06:26:22.959Z,101938.53
2023-04-08T06:29:25.898Z,101951.97
2023-04-08T06:32:30.202Z,101947.16
2023-04-08T06:35:33.080Z,101954.91
2023-04-08T06:38:36.266Z,101955.38
2023-04-08T06:41:39.143Z,101958.75
2023-04-08T06:44:42.789Z,101965.91
2023-04-08T06:47:48.243Z,101968.00
2023-04-08T06:50:51.248Z,101973.56
2023-04-08T06:53:54.155Z,101974.81
2023-04-08T06:56:57.510Z,101982.22
2023-04-08T07:00:00.541Z,101984.69
2023-04-08T07:03:06.557Z,101992.03
2023-04-08T07:06:09.918Z,101993.31
2023-04-08T07:09:12.641Z,101991.03
2023-04-08T07:12:15.679Z,101995.44
2023-04-08T07:15:18.489Z,101997.81
2023-04-08T07:18:23.635Z,101999.28
2023-04-08T07:21:27.166Z,102004.53
2023-04-08T07:24:29.919Z,102012.25
2023-04-08T07:27:32.927Z,102015.84
2023-04-08T07:30:35.769Z,102014.03
2023-04-08T07:33:40.860Z,102009.97
2023-04-08T07:36:44.122Z,102013.34
2023-04-08T07:39:46.785Z,102018.22
2023-04-08T07:42:49.604Z,102021.38
2023-04-08T07:45:52.388Z,102033.19
2023-04-08T07:48:57.499Z,102029.59
2023-04-08T07:52:00.452Z,102035.75
2023-04-08T07:55:03.273Z,102037.63
2023-04-08T07:58:06.340Z,102041.19
2023-04-08T08:01:18.796Z,102045.81
2023-04-08T08:04:25.959Z,102038.47
2023-04-08T08:07:29.027Z,102043.34
2023-04-08T08:10:32.204Z,102052.22
2023-04-08T08:13:35.132Z,102038.56
2023-04-08T08:16:38.659Z,102051.16
2023-04-08T08:19:42.903Z,102038.59
2023-04-08T08:22:56.692Z,102040.69
2023-04-08T08:26:01.343Z,102040.91
2023-04-08T08:29:06.590Z,102046.38
2023-04-08T08:32:09.318Z,102049.28
2023-04-08T08:35:13.393Z,102052.22
2023-04-08T08:38:17.704Z,102059.81
2023-04-08T08:41:22.292Z,102048.22
2023-04-08T08:44:25.863Z,102051.81
2023-04-08T08:47:28.599Z,102061.91
2023-04-08T08:50:32.976Z,102066.56
2023-04-08T08:53:36.342Z,102071.22
2023-04-08T08:56:39.669Z,102061.50
2023-04-08T08:59:42.637Z,102067.41
2023-04-08T09:02:59.665Z,102074.13
2023-04-08T09:06:05.528Z,102070.75
2023-04-08T09:09:10.676Z,102083.19
2023-04-08T09:12:13.955Z,102087.16
2023-04-08T09:15:16.790Z,102090.13
2023-04-08T09:18:23.296Z,102092.19
2023-04-08T09:21:27.819Z,102094.91
2023-04-08T09:24:32.472Z,102107.59
2023-04-08T09:27:36.277Z,102102.91
2023-04-08T09:30:39.254Z,102112.81
2023-04-08T09:33:42.102Z,102116.59
2023-04-08T09:36:48.671Z,102109.66
2023-04-08T09:39:51.588Z,102122.91
2023-04-08T09:42:56.218Z,102119.06
2023-04-08T09:46:04.345Z,102125.44
2023-04-08T09:49:08.721Z,102124.81
2023-04-08T09:52:17.524Z,102118.22
2023-04-08T09:55:23.789Z,102114.25
2023-04-08T09:58:30.525Z,102116.69
2023-04-08T10:01:40.178Z,102118.50
2023-04-08T10:04:49.088Z,102126.56
2023-04-08T10:07:54.543Z,102127.81
2023-04-08T10:10:57.848Z,102123.88
2023-04-08T10:14:01.235Z,102127.16
2023-04-08T10:17:27.591Z,102122.53
2023-04-08T10:20:44.673Z,102127.00
2023-04-08T10:24:00.938Z,102121.84
2023-04-08T10:27:05.732Z,102125.78
2023-04-08T10:30:43.547Z,102128.75
2023-04-08T10:33:46.464Z,102129.59
2023-04-08T10:36:49.963Z,102123.03
2023-04-08T10:39:55.929Z,102129.94
2023-04-08T10:42:59.894Z,102128.88
2023-04-08T10:46:03.025Z,102127.22
2023-04-08T10:49:07.025Z,102117.00
2023-04-08T10:52:10.406Z,102120.53
2023-04-08T10:55:14.665Z,102133.38
2023-04-08T10:58:18.196Z,102128.59
2023-04-08T11:01:21.447Z,102124.84
2023-04-08T11:04:25.344Z,102124.31
2023-04-08T11:07:28.279Z,102122.03
2023-04-08T11:10:37.613Z,102123.25
2023-04-08T11:13:51.255Z,102124.47
2023-04-08T11:16:55.916Z,102113.44
2023-04-08T11:20:02.335Z,102113.16
2023-04-08T11:23:05.161Z,102115.16
2023-04-08T11:26:10.541Z,102122.19
2023-04-08T11:29:15.265Z,102115.84
2023-04-08T11:32:19.001Z,102130.44
2023-04-08T11:35:21.880Z,102116.56
2023-04-08T11:38:25.908Z,102120.72
2023-04-08T11:41:39.416Z,102119.09
2023-04-08T11:44:42.771Z,102118.09
2023-04-08T11:47:47.182Z,102115.72
2023-04-08T11:51:03.771Z,102111.47
2023-04-08T11:54:07.980Z,102110.75
2023-04-08T11:57:12.930Z,102119.28
2023-04-08T12:00:17.912Z,102110.78
2023-04-08T12:03:22.052Z,102112.22
2023-04-08T12:06:27.288Z,102115.22
2023-04-08T12:09:30.188Z,102109.13
2023-04-08T12:12:34.714Z,102112.34
2023-04-08T12:15:38.350Z,102115.84
2023-04-08T12:18:42.680Z,102112.97
2023-04-08T12:21:45.826Z,102115.22
2023-04-08T12:24:48.605Z,102105.63
2023-04-08T12:27:52.756Z,102113.88
2023-04-08T12:30:55.793Z,102117.31
2023-04-08T12:33:58.940Z,102118.00
2023-04-08T12:37:02.648Z,102106.69
2023-04-08T12:40:06.078Z,102119.78
2023-04-08T12:43:10.481Z,102113.59
2023-04-08T12:46:13.425Z,102113.75
2023-04-08T12:49:16.519Z,102117.91
2023-04-08T12:52:19.881Z,102109.69
2023-04-08T12:55:24.927Z,102111.69
2023-04-08T12:58:29.696Z,102099.06
2023-04-08T13:01:32.632Z,102097.81
2023-04-08T13:04:37.293Z,102092.41
2023-04-08T13:07:40.102Z,102095.19
2023-04-08T13:10:43.722Z,102098.66
2023-04-08T13:13:48.184Z,102092.97
2023-04-08T13:16:51.095Z,102090.56
2023-04-08T13:19:54.799Z,102084.56
2023-04-08T13:22:59.956Z,102084.84
2023-04-08T13:26:03.087Z,102094.91
2023-04-08T13:29:07.256Z,102076.66
2023-04-08T13:32:10.337Z,102081.63
2023-04-08T13:35:15.088Z,102088.38
2023-04-08T13:38:18.207Z,102081.69
2023-04-08T13:41:22.156Z,102082.13
2023-04-08T13:44:27.766Z,102080.69
2023-04-08T13:47:32.697Z,102073.50
2023-04-08T13:50:36.539Z,102081.63
2023-04-08T13:53:39.641Z,102084.56
2023-04-08T13:56:44.518Z,102076.56
2023-04-08T13:59:48.903Z,102087.53
2023-04-08T14:02:51.820Z,102076.16
2023-04-08T14:05:55.409Z,102075.59
2023-04-08T14:08:58.159Z,102076.81
2023-04-08T14:12:00.887Z,102073.84
2023-04-08T14:15:05.659Z,102070.00
2023-04-08T14:18:10.127Z,102071.47
2023-04-08T14:21:15.906Z,102068.72
2023-04-08T14:24:18.977Z,102067.47
2023-04-08T14:27:24.434Z,102069.88
2023-04-08T14:30:29.185Z,102069.75
2023-04-08T14:33:34.153Z,102061.19
2023-04-08T14:36:37.591Z,102071.59
2023-04-08T14:39:40.436Z,102059.72
2023-04-08T14:42:44.545Z,102060.22
2023-04-08T14:45:50.629Z,102063.22
2023-04-08T14:48:54.025Z,102070.72
2023-04-08T14:51:57.428Z,102059.88
2023-04-08T14:55:00.518Z,102066.00
2023-04-08T14:58:04.726Z,102066.59
2023-04-08T15:01:08.922Z,102057.50
2023-04-08T15:04:13.403Z,102055.84
2023-04-08T15:07:18.086Z,102063.03
2023-04-08T15:10:22.552Z,102057.06
2023-04-08T15:13:25.343Z,102061.53
2023-04-08T15:16:29.710Z,102060.53
2023-04-08T15:19:32.680Z,102059.59
2023-04-08T15:22:35.568Z,102057.16
2023-04-08T15:25:38.402Z,102057.56
2023-04-08T15:28:41.599Z,102058.09
2023-04-08T15:31:45.882Z,102060.34
2023-04-08T15:34:50.610Z,102057.81
2023-04-08T15:37:53.646Z,102066.94
2023-04-08T15:40:56.409Z,102063.47
2023-04-08T15:43:59.698Z,102061.19
2023-04-08T15:47:04.668Z,102073.88
2023-04-08T15:50:09.808Z,102066.91
2023-04-08T15:53:12.747Z,102066.50
2023-04-08T15:56:18.163Z,102069.19
2023-04-08T15:59:24.617Z,102065.00
2023-04-08T16:02:31.396Z,102063.16
2023-04-08T16:05:36.141Z,102067.03
2023-04-08T16:08:39.288Z,102068.88
2023-04-08T16:11:43.481Z,102070.25
2023-04-08T16:14:47.905Z,102070.03
2023-04-08T16:18:04.694Z,102073.19
2023-04-08T16:21:08.004Z,102070.22
2023-04-08T16:24:11.640Z,102076.81
2023-04-08T16:27:14.956Z,102077.94
2023-04-08T16:30:18.146Z,102080.13
2023-04-08T16:33:24.008Z,102086.25
2023-04-08T16:36:28.411Z,102089.84
2023-04-08T16:39:32.715Z,102089.59
2023-04-08T16:42:35.427Z,102094.16
2023-04-08T16:45:39.048Z,102103.84
2023-04-08T16:48:43.952Z,102103.84
2023-04-08T16:51:59.005Z,102104.59
2023-04-08T16:55:09.426Z,102109.72
2023-04-08T16:58:12.241Z,102119.59
2023-04-08T17:01:16.108Z,102116.00
2023-04-08T17:04:20.822Z,102110.50
2023-04-08T17:07:24.148Z,102120.31
2023-04-08T17:10:26.935Z,102124.66
2023-04-08T17:13:29.897Z,102129.69
2023-04-08T17:16:33.917Z,102135.94
2023-04-08T17:19:38.810Z,102139.38
2023-04-08T17:22:42.089Z,102133.22
2023-04-08T17:25:46.564Z,102142.00
2023-04-08T17:28:49.843Z,102150.84
2023-04-08T17:31:53.350Z,102145.69
2023-04-08T17:34:57.814Z,102144.06
2023-04-08T17:38:00.674Z,102151.41
2023-04-08T17:41:03.465Z,102159.59
2023-04-08T17:44:06.191Z,102158.09
2023-04-08T17:47:09.789Z,102163.19
2023-04-08T17:50:15.840Z,102167.66
2023-04-08T17:53:18.852Z,102188.81
2023-04-08T17:56:23.806Z,102197.88
2023-04-08T17:59:27.030Z,102211.09
2023-04-08T18:02:30.238Z,102220.88
2023-04-08T18:05:35.488Z,102231.81
2023-04-08T18:08:39.398Z,102234.06
2023-04-08T18:11:42.701Z,102239.16
2023-04-08T18:14:45.426Z,102240.38
2023-04-08T18:17:48.857Z,102259.38
2023-04-08T18:20:53.255Z,102262.75
2023-04-08T18:23:56.244Z,102264.25
2023-04-08T18:27:04.461Z,102267.69
2023-04-08T18:30:08.849Z,102273.41
2023-04-08T18:33:13.413Z,102275.84
2023-04-08T18:36:19.016Z,102277.78
2023-04-08T18:39:22.551Z,102278.50
2023-04-08T18:42:26.202Z,102292.22
2023-04-08T18:45:29.563Z,102291.94
2023-04-08T18:48:33.448Z,102293.69
2023-04-08T18:51:42.103Z,102296.22
2023-04-08T18:54:48.915Z,102310.72
2023-04-08T18:57:52.515Z,102310.59
2023-04-08T19:00:55.514Z,102309.59
2023-04-08T19:03:58.576Z,102315.53
2023-04-08T19:07:03.044Z,102313.41
2023-04-08T19:10:06.709Z,102317.94
2023-04-08T19:13:09.510Z,102318.78
2023-04-08T19:16:12.848Z,102318.56
2023-04-08T19:19:16.231Z,102325.50
2023-04-08T19:22:20.861Z,102320.47
2023-04-08T19:25:23.582Z,102324.88
2023-04-08T19:28:26.331Z,102333.13
2023-04-08T19:31:30.337Z,102317.50
2023-04-08T19:34:37.423Z,102325.53
2023-04-08T19:37:41.729Z,102325.50
2023-04-08T19:40:44.568Z,102325.72
2023-04-08T19:43:47.759Z,102325.72
2023-04-08T19:46:51.389Z,102331.44
2023-04-08T19:49:54.089Z,102323.22
2023-04-08T19:52:58.669Z,102329.50
2023-04-08T19:56:02.318Z,102335.16
2023-04-08T19:59:05.062Z,102334.72
2023-04-08T20:02:08.507Z,102335.19
2023-04-08T20:05:14.675Z,102333.69
2023-04-08T20:08:19.006Z,102338.94
2023-04-08T20:11:22.237Z,102343.59
2023-04-08T20:14:25.499Z,102335.38
2023-04-08T20:17:28.968Z,102335.41
2023-04-08T20:20:31.966Z,102334.97
2023-04-08T20:23:36.401Z,102339.41
2023-04-08T20:26:40.503Z,102346.09
2023-04-08T20:29:43.813Z,102343.13
2023-04-08T20:32:49.053Z,102343.34
2023-04-08T20:35:53.353Z,102351.00
2023-04-08T20:38:57.991Z,102350.78
2023-04-08T20:42:01.608Z,102350.72
2023-04-08T20:45:05.903Z,102347.09
2023-04-08T20:48:09.125Z,102333.81
2023-04-08T20:51:12.184Z,102342.06
2023-04-08T20:54:16.452Z,102334.47
2023-04-08T20:57:19.434Z,102341.84
2023-04-08T21:00:22.368Z,102338.91
2023-04-08T21:03:25.296Z,102344.69
2023-04-08T21:06:28.513Z,102338.34
2023-04-08T21:09:32.685Z,102343.59
2023-04-08T21:12:35.398Z,102354.22
2023-04-08T21:15:38.726Z,102355.03
2023-04-08T21:18:42.515Z,102357.50
2023-04-08T21:21:47.031Z,102352.88
2023-04-08T21:24:51.701Z,102350.78
2023-04-08T21:27:54.910Z,102351.00
2023-04-08T21:30:59.880Z,102360.94
2023-04-08T21:34:02.742Z,102351.66
2023-04-08T21:37:06.050Z,102354.59
2023-04-08T21:40:12.056Z,102360.31
2023-04-08T21:43:15.561Z,102355.88
2023-04-08T21:46:18.831Z,102350.81
2023-04-08T21:49:22.032Z,102357.16
2023-04-08T21:52:26.729Z,102358.84
2023-04-08T21:55:31.883Z,102357.56
2023-04-08T21:58:34.972Z,102353.34
2023-04-08T22:01:37.898Z,102364.31
2023-04-08T22:04:41.213Z,102346.78
2023-04-08T22:07:43.964Z,102348.06
2023-04-08T22:10:48.210Z,102342.59
2023-04-08T22:13:51.788Z,102346.78
2023-04-08T22:16:54.865Z,102341.72
2023-04-08T22:19:57.877Z,102332.91
2023-04-08T22:23:00.668Z,102340.06
2023-04-08T22:26:05.076Z,102339.84
2023-04-08T22:29:07.870Z,102338.56
2023-04-08T22:32:10.976Z,102338.81
2023-04-08T22:35:14.157Z,102335.00
2023-04-08T22:38:16.879Z,102326.16
2023-04-08T22:41:22.687Z,102331.44
2023-04-08T22:44:25.823Z,102324.06
2023-04-08T22:47:28.684Z,102326.56
2023-04-08T22:50:32.696Z,102329.28
2023-04-08T22:53:35.856Z,102326.16
2023-04-08T22:56:40.083Z,102325.13
2023-04-08T22:59:42.873Z,102320.38
2023-04-08T23:02:46.053Z,102327.25
2023-04-08T23:05:48.980Z,102324.69
2023-04-08T23:08:52.862Z,102334.38
2023-04-08T23:12:05.250Z,102328.28
2023-04-08T23:15:09.195Z,102330.75
2023-04-08T23:18:12.892Z,102333.53
2023-04-08T23:21:16.824Z,102331.66
2023-04-08T23:24:19.520Z,102331.34
2023-04-08T23:27:23.841Z,102329.53
2023-04-08T23:30:26.823Z,102324.66
2023-04-08T23:33:29.996Z,102335.38
2023-04-08T23:36:33.813Z,102329.13
2023-04-08T23:39:37.530Z,102330.84
2023-04-08T23:42:42.150Z,102329.91
2023-04-08T23:45:44.870Z,102338.94
2023-04-08T23:48:48.238Z,102332.41
2023-04-08T23:51:51.637Z,102330.97
2023-04-08T23:54:54.385Z,102330.41
2023-04-08T23:57:58.635Z,102338.34
